createdAt,value
2018-10-11T00:01:28.743Z,14.20
2018-10-11T00:03:57.019Z,14.20
2018-10-11T00:06:25.257Z,14.10
2018-10-11T00:08:53.519Z,14.00
2018-10-11T00:11:21.873Z,14.00
2018-10-11T00:13:50.184Z,13.90
2018-10-11T00:16:18.427Z,13.90
2018-10-11T00:18:46.700Z,13.90
2018-10-11T00:21:14.983Z,13.90
2018-10-11T00:23:43.254Z,13.90
2018-10-11T00:26:11.563Z,13.90
2018-10-11T00:28:39.838Z,13.80
2018-10-11T00:31:08.124Z,13.70
2018-10-11T00:33:36.389Z,13.70
2018-10-11T00:36:04.646Z,13.70
2018-10-11T00:38:32.987Z,13.60
2018-10-11T00:41:01.594Z,13.60
2018-10-11T00:43:29.964Z,13.60
2018-10-11T00:45:58.272Z,13.60
2018-10-11T00:48:26.632Z,13.60
2018-10-11T00:50:54.980Z,13.60
2018-10-11T00:53:23.280Z,13.60
2018-10-11T00:55:51.551Z,13.60
2018-10-11T00:58:19.878Z,13.60
2018-10-11T01:00:48.175Z,13.60
2018-10-11T01:03:16.451Z,13.60
2018-10-11T01:05:44.760Z,13.50
2018-10-11T01:08:13.030Z,13.50
2018-10-11T01:10:41.305Z,13.40
2018-10-11T01:13:09.603Z,13.30
2018-10-11T01:15:37.920Z,13.30
2018-10-11T01:18:06.261Z,13.40
2018-10-11T01:20:34.559Z,13.40
2018-10-11T01:23:02.980Z,13.40
2018-10-11T01:25:31.329Z,13.40
2018-10-11T01:27:59.608Z,13.40
2018-10-11T01:30:27.873Z,13.30
2018-10-11T01:32:56.355Z,13.30
2018-10-11T01:35:24.955Z,13.20
2018-10-11T01:37:53.192Z,13.20
2018-10-11T01:40:21.439Z,13.20
2018-10-11T01:42:59.474Z,13.10
2018-10-11T01:45:27.740Z,13.10
2018-10-11T01:47:56.270Z,13.10
2018-10-11T01:50:24.536Z,13.10
2018-10-11T01:52:52.774Z,13.10
2018-10-11T01:55:21.191Z,13.10
2018-10-11T01:57:49.435Z,13.10
2018-10-11T02:00:17.725Z,13.00
2018-10-11T02:02:45.955Z,13.00
2018-10-11T02:05:14.239Z,12.90
2018-10-11T02:07:42.628Z,12.80
2018-10-11T02:10:10.923Z,12.80
2018-10-11T02:12:39.320Z,12.70
2018-10-11T02:15:07.576Z,12.70
2018-10-11T02:17:35.850Z,12.70
2018-10-11T02:20:04.111Z,12.70
2018-10-11T02:22:32.352Z,12.70
2018-10-11T02:25:00.663Z,12.70
2018-10-11T02:27:28.914Z,12.70
2018-10-11T02:29:57.156Z,12.60
2018-10-11T02:32:25.981Z,12.60
2018-10-11T02:34:54.240Z,12.60
2018-10-11T02:37:22.512Z,12.70
2018-10-11T02:39:50.811Z,12.60
2018-10-11T02:42:19.108Z,12.60
2018-10-11T02:44:47.416Z,12.60
2018-10-11T02:47:15.695Z,12.60
2018-10-11T02:49:44.005Z,12.60
2018-10-11T02:52:12.568Z,12.70
2018-10-11T02:54:41.051Z,12.70
2018-10-11T02:57:19.458Z,12.70
2018-10-11T02:59:47.722Z,12.70
2018-10-11T03:02:16.008Z,12.70
2018-10-11T03:04:46.176Z,12.70
2018-10-11T03:07:14.414Z,12.70
2018-10-11T03:09:43.189Z,12.70
2018-10-11T03:12:11.896Z,12.70
2018-10-11T03:14:40.295Z,12.70
2018-10-11T03:17:08.762Z,12.70
2018-10-11T03:19:37.072Z,12.60
2018-10-11T03:22:05.354Z,12.50
2018-10-11T03:24:33.656Z,12.40
2018-10-11T03:27:01.951Z,12.40
2018-10-11T03:29:31.272Z,12.40
2018-10-11T03:31:59.540Z,12.30
2018-10-11T03:34:28.944Z,12.30
2018-10-11T03:36:58.130Z,12.30
2018-10-11T03:39:27.152Z,12.30
2018-10-11T03:41:56.135Z,12.40
2018-10-11T03:44:24.591Z,12.40
2018-10-11T03:46:52.923Z,12.40
2018-10-11T03:49:21.255Z,12.40
2018-10-11T03:51:49.540Z,12.30
2018-10-11T03:54:17.826Z,12.30
2018-10-11T03:56:46.122Z,12.30
2018-10-11T03:59:14.511Z,12.30
2018-10-11T04:01:42.824Z,12.30
2018-10-11T04:04:11.085Z,12.30
2018-10-11T04:06:39.355Z,12.30
2018-10-11T04:09:07.702Z,12.30
2018-10-11T04:11:35.963Z,12.30
2018-10-11T04:14:04.288Z,12.30
2018-10-11T04:16:32.588Z,12.20
2018-10-11T04:19:00.963Z,12.20
2018-10-11T04:21:29.307Z,12.20
2018-10-11T04:23:57.550Z,12.20
2018-10-11T04:26:25.796Z,12.20
2018-10-11T04:28:54.072Z,12.20
2018-10-11T04:31:22.376Z,12.10
2018-10-11T04:33:50.632Z,12.10
2018-10-11T04:36:18.905Z,12.10
2018-10-11T04:38:47.213Z,12.00
2018-10-11T04:41:15.589Z,12.00
2018-10-11T04:43:44.123Z,12.10
2018-10-11T04:46:12.415Z,12.10
2018-10-11T04:48:40.688Z,12.00
2018-10-11T04:51:09.036Z,12.00
2018-10-11T04:53:37.428Z,12.00
2018-10-11T04:56:05.698Z,12.00
2018-10-11T04:58:33.968Z,12.10
2018-10-11T05:01:02.245Z,12.10
2018-10-11T05:03:30.493Z,12.10
2018-10-11T05:05:58.758Z,12.10
2018-10-11T05:08:27.012Z,12.10
2018-10-11T05:10:55.293Z,12.10
2018-10-11T05:13:34.814Z,12.10
2018-10-11T05:16:03.075Z,12.10
2018-10-11T05:18:31.379Z,12.10
2018-10-11T05:20:59.654Z,12.10
2018-10-11T05:23:27.939Z,12.10
2018-10-11T05:25:56.266Z,12.20
2018-10-11T05:28:24.504Z,12.20
2018-10-11T05:30:52.748Z,12.10
2018-10-11T05:33:21.004Z,12.10
2018-10-11T05:35:49.258Z,12.10
2018-10-11T05:38:17.628Z,12.10
2018-10-11T05:40:45.920Z,12.10
2018-10-11T05:43:14.599Z,12.20
2018-10-11T05:45:45.578Z,12.10
2018-10-11T05:48:13.918Z,12.10
2018-10-11T05:50:42.799Z,12.00
2018-10-11T05:53:11.096Z,12.00
2018-10-11T05:55:39.382Z,12.00
2018-10-11T05:58:07.655Z,12.00
2018-10-11T06:00:35.912Z,12.00
2018-10-11T06:03:04.635Z,12.00
2018-10-11T06:05:32.951Z,12.00
2018-10-11T06:08:02.242Z,12.00
2018-10-11T06:10:32.750Z,12.00
2018-10-11T06:13:01.047Z,12.00
2018-10-11T06:15:29.579Z,12.00
2018-10-11T06:17:57.947Z,12.00
2018-10-11T06:20:26.139Z,12.10
2018-10-11T06:22:55.966Z,12.10
2018-10-11T06:25:24.340Z,12.10
2018-10-11T06:27:52.665Z,12.20
2018-10-11T06:30:21.035Z,12.20
2018-10-11T06:32:49.278Z,12.20
2018-10-11T06:35:17.567Z,12.30
2018-10-11T06:37:45.899Z,12.30
2018-10-11T06:40:14.239Z,12.40
2018-10-11T06:42:43.254Z,12.40
2018-10-11T06:45:12.899Z,12.50
2018-10-11T06:47:41.507Z,12.50
2018-10-11T06:50:10.073Z,12.50
2018-10-11T06:52:38.528Z,12.60
2018-10-11T06:55:07.427Z,12.60
2018-10-11T06:57:35.738Z,12.60
2018-10-11T07:00:04.708Z,12.70
2018-10-11T07:02:32.980Z,12.70
2018-10-11T07:05:01.269Z,12.80
2018-10-11T07:07:29.525Z,12.80
2018-10-11T07:09:57.818Z,12.80
2018-10-11T07:12:26.074Z,12.90
2018-10-11T07:14:54.351Z,13.00
2018-10-11T07:17:22.640Z,13.10
2018-10-11T07:19:50.927Z,13.20
2018-10-11T07:22:19.203Z,13.30
2018-10-11T07:24:47.486Z,13.40
2018-10-11T07:27:15.760Z,13.50
2018-10-11T07:29:44.021Z,13.60
2018-10-11T07:32:12.280Z,13.70
2018-10-11T07:34:40.650Z,13.70
2018-10-11T07:37:08.895Z,13.70
2018-10-11T07:39:37.165Z,13.80
2018-10-11T07:42:05.495Z,13.90
2018-10-11T07:44:33.795Z,13.90
2018-10-11T07:47:02.121Z,14.00
2018-10-11T07:49:30.432Z,14.10
2018-10-11T07:51:58.712Z,14.20
2018-10-11T07:54:32.303Z,14.20
2018-10-11T07:57:01.103Z,14.30
2018-10-11T07:59:29.444Z,14.30
2018-10-11T08:01:57.704Z,14.40
2018-10-11T08:04:29.025Z,14.50
2018-10-11T08:06:57.330Z,14.60
2018-10-11T08:09:25.605Z,14.60
2018-10-11T08:11:53.983Z,14.70
2018-10-11T08:14:22.275Z,14.80
2018-10-11T08:16:50.673Z,14.90
2018-10-11T08:19:19.074Z,15.00
2018-10-11T08:21:47.230Z,15.00
2018-10-11T08:24:15.467Z,15.20
2018-10-11T08:26:43.840Z,15.40
2018-10-11T08:29:12.107Z,15.50
2018-10-11T08:31:40.482Z,15.60
2018-10-11T08:34:08.915Z,15.70
2018-10-11T08:36:37.197Z,15.80
2018-10-11T08:39:08.251Z,15.90
2018-10-11T08:41:36.915Z,16.00
2018-10-11T08:44:05.226Z,16.00
2018-10-11T08:46:33.454Z,16.20
2018-10-11T08:49:01.772Z,16.30
2018-10-11T08:51:29.978Z,16.40
2018-10-11T08:54:03.805Z,16.40
2018-10-11T08:56:32.047Z,16.40
2018-10-11T08:59:00.322Z,16.60
2018-10-11T09:01:28.668Z,16.70
2018-10-11T09:03:57.154Z,16.80
2018-10-11T09:06:25.271Z,16.90
2018-10-11T09:08:53.584Z,17.00
2018-10-11T09:11:21.902Z,17.10
2018-10-11T09:13:50.259Z,17.30
2018-10-11T09:16:18.897Z,17.30
2018-10-11T09:18:47.325Z,17.50
2018-10-11T09:21:15.600Z,17.60
2018-10-11T09:23:43.892Z,17.70
2018-10-11T09:26:12.355Z,17.70
2018-10-11T09:28:40.653Z,17.70
2018-10-11T09:31:08.932Z,17.80
2018-10-11T09:33:37.215Z,17.90
2018-10-11T09:36:05.532Z,18.00
2018-10-11T09:38:33.823Z,18.10
2018-10-11T09:41:02.082Z,18.00
2018-10-11T09:43:30.386Z,18.20
2018-10-11T09:45:58.636Z,18.40
2018-10-11T09:48:26.943Z,18.40
2018-10-11T09:50:55.251Z,18.50
2018-10-11T09:53:23.670Z,18.60
2018-10-11T09:55:51.963Z,18.60
2018-10-11T09:58:20.281Z,18.60
2018-10-11T10:00:53.871Z,18.70
2018-10-11T10:03:22.160Z,18.80
2018-10-11T10:05:50.515Z,18.90
2018-10-11T10:08:18.748Z,19.00
2018-10-11T10:10:47.013Z,19.00
2018-10-11T10:13:15.259Z,19.20
2018-10-11T10:15:43.706Z,19.30
2018-10-11T10:18:11.940Z,19.40
2018-10-11T10:20:40.226Z,19.60
2018-10-11T10:23:08.474Z,19.60
2018-10-11T10:25:36.836Z,19.60
2018-10-11T10:28:05.105Z,19.60
2018-10-11T10:30:38.872Z,19.60
2018-10-11T10:33:07.146Z,19.70
2018-10-11T10:35:35.489Z,19.80
2018-10-11T10:38:03.909Z,20.00
2018-10-11T10:40:32.288Z,20.00
2018-10-11T10:43:01.671Z,20.10
2018-10-11T10:45:29.989Z,20.20
2018-10-11T10:47:58.367Z,20.20
2018-10-11T10:50:26.664Z,20.20
2018-10-11T10:52:54.959Z,20.30
2018-10-11T10:55:23.253Z,20.40
2018-10-11T10:57:51.539Z,20.50
2018-10-11T11:00:19.816Z,20.50
2018-10-11T11:02:48.113Z,20.60
2018-10-11T11:05:16.363Z,20.70
2018-10-11T11:07:44.651Z,20.70
2018-10-11T11:10:12.923Z,20.80
2018-10-11T11:12:41.203Z,20.80
2018-10-11T11:15:09.512Z,20.90
2018-10-11T11:17:37.813Z,20.90
2018-10-11T11:20:06.171Z,21.00
2018-10-11T11:22:34.464Z,21.10
2018-10-11T11:25:02.779Z,21.20
2018-10-11T11:27:31.060Z,21.20
2018-10-11T11:29:59.362Z,21.30
2018-10-11T11:32:27.656Z,21.40
2018-10-11T11:34:55.956Z,21.40
2018-10-11T11:37:24.882Z,21.50
2018-10-11T11:39:53.180Z,21.60
2018-10-11T11:42:21.473Z,21.60
2018-10-11T11:44:49.715Z,21.70
2018-10-11T11:47:17.968Z,21.80
2018-10-11T11:49:46.239Z,21.80
2018-10-11T11:52:14.688Z,21.80
2018-10-11T11:54:43.031Z,21.90
2018-10-11T11:57:11.327Z,21.90
2018-10-11T11:59:39.576Z,21.90
2018-10-11T12:02:08.047Z,22.00
2018-10-11T12:04:36.263Z,22.10
2018-10-11T12:07:04.648Z,22.20
2018-10-11T12:09:32.935Z,22.20
2018-10-11T12:12:01.252Z,22.20
2018-10-11T12:14:29.591Z,22.40
2018-10-11T12:16:57.816Z,22.50
2018-10-11T12:19:26.047Z,22.50
2018-10-11T12:21:54.383Z,22.40
2018-10-11T12:24:22.711Z,22.40
2018-10-11T12:26:51.093Z,22.60
2018-10-11T12:29:19.428Z,22.70
2018-10-11T12:31:47.775Z,22.80
2018-10-11T12:34:16.051Z,22.80
2018-10-11T12:36:44.322Z,22.90
2018-10-11T12:39:12.598Z,23.00
2018-10-11T12:41:40.875Z,23.10
2018-10-11T12:44:09.303Z,23.10
2018-10-11T12:46:39.627Z,23.40
2018-10-11T12:49:06.442Z,23.40
2018-10-11T12:51:34.754Z,23.50
2018-10-11T12:54:03.120Z,23.30
2018-10-11T12:56:31.427Z,23.10
2018-10-11T12:58:59.805Z,23.00
2018-10-11T13:01:28.148Z,23.10
2018-10-11T13:03:58.191Z,23.00
2018-10-11T13:06:26.479Z,23.20
2018-10-11T13:08:54.798Z,23.30
2018-10-11T13:11:23.103Z,23.30
2018-10-11T13:13:53.010Z,23.20
2018-10-11T13:16:19.695Z,23.20
2018-10-11T13:18:47.991Z,23.30
2018-10-11T13:21:16.276Z,23.30
2018-10-11T13:23:44.683Z,23.40
2018-10-11T13:26:12.939Z,23.30
2018-10-11T13:28:41.423Z,23.30
2018-10-11T13:31:09.790Z,23.30
2018-10-11T13:33:38.022Z,23.40
2018-10-11T13:36:06.275Z,23.20
2018-10-11T13:38:34.574Z,23.00
2018-10-11T13:41:03.919Z,22.90
2018-10-11T13:43:31.861Z,23.00
2018-10-11T13:46:02.540Z,23.00
2018-10-11T13:48:28.558Z,23.30
2018-10-11T13:50:56.899Z,23.50
2018-10-11T13:53:25.173Z,23.50
2018-10-11T13:55:56.671Z,23.50
2018-10-11T13:58:21.791Z,23.50
2018-10-11T14:00:50.071Z,23.60
2018-10-11T14:03:18.342Z,23.60
2018-10-11T14:05:46.625Z,23.40
2018-10-11T14:08:14.958Z,23.50
2018-10-11T14:10:43.416Z,23.70
2018-10-11T14:13:15.092Z,23.70
2018-10-11T14:15:40.141Z,23.80
2018-10-11T14:18:14.879Z,23.80
2018-10-11T14:20:43.167Z,23.50
2018-10-11T14:23:11.498Z,23.60
2018-10-11T14:25:39.837Z,23.60
2018-10-11T14:28:08.161Z,23.60
2018-10-11T14:30:36.718Z,23.80
2018-10-11T14:33:05.037Z,23.80
2018-10-11T14:35:33.306Z,23.70
2018-10-11T14:38:01.549Z,23.50
2018-10-11T14:40:29.845Z,23.40
2018-10-11T14:42:58.117Z,23.40
2018-10-11T14:45:26.423Z,23.50
2018-10-11T14:47:54.651Z,23.60
2018-10-11T14:50:22.918Z,23.70
2018-10-11T14:52:51.179Z,23.60
2018-10-11T14:55:19.452Z,23.50
2018-10-11T14:57:47.772Z,23.40
2018-10-11T15:00:16.060Z,23.40
2018-10-11T15:02:44.562Z,23.60
2018-10-11T15:05:12.840Z,23.70
2018-10-11T15:07:41.119Z,23.70
2018-10-11T15:10:09.347Z,23.70
2018-10-11T15:12:38.311Z,23.80
2018-10-11T15:15:06.563Z,23.90
2018-10-11T15:17:34.865Z,23.90
2018-10-11T15:20:03.139Z,23.90
2018-10-11T15:22:31.441Z,23.80
2018-10-11T15:24:59.677Z,23.90
2018-10-11T15:27:27.896Z,23.80
2018-10-11T15:29:56.166Z,23.60
2018-10-11T15:32:24.408Z,23.30
2018-10-11T15:34:52.664Z,23.10
2018-10-11T15:37:20.997Z,22.70
2018-10-11T15:39:49.384Z,22.50
2018-10-11T15:42:17.732Z,22.30
2018-10-11T15:44:46.013Z,22.20
2018-10-11T15:47:14.307Z,22.20
2018-10-11T15:49:42.584Z,22.20
2018-10-11T15:52:10.863Z,22.30
2018-10-11T15:54:39.131Z,22.20
2018-10-11T15:57:07.606Z,22.10
2018-10-11T15:59:35.848Z,22.00
2018-10-11T16:02:04.107Z,21.80
2018-10-11T16:04:32.450Z,21.70
2018-10-11T16:07:00.692Z,21.60
2018-10-11T16:09:29.086Z,21.60
2018-10-11T16:11:57.363Z,21.40
2018-10-11T16:14:25.680Z,21.30
2018-10-11T16:16:54.004Z,21.10
2018-10-11T16:19:22.348Z,21.10
2018-10-11T16:21:50.617Z,21.00
2018-10-11T16:24:18.859Z,21.00
2018-10-11T16:26:47.158Z,20.90
2018-10-11T16:29:15.428Z,20.80
2018-10-11T16:31:50.603Z,20.80
2018-10-11T16:34:18.869Z,20.70
2018-10-11T16:36:47.116Z,20.60
2018-10-11T16:39:15.431Z,20.50
2018-10-11T16:41:43.703Z,20.40
2018-10-11T16:44:12.100Z,20.40
2018-10-11T16:46:40.455Z,20.30
2018-10-11T16:49:08.979Z,20.30
2018-10-11T16:51:37.677Z,20.20
2018-10-11T16:54:06.534Z,20.20
2018-10-11T16:56:34.879Z,20.20
2018-10-11T16:59:03.280Z,20.20
2018-10-11T17:01:31.696Z,20.10
2018-10-11T17:03:59.992Z,20.10
2018-10-11T17:06:28.211Z,20.10
2018-10-11T17:08:56.444Z,20.10
2018-10-11T17:11:24.720Z,20.00
2018-10-11T17:13:53.015Z,19.90
2018-10-11T17:16:22.133Z,19.90
2018-10-11T17:18:50.472Z,19.80
2018-10-11T17:21:18.725Z,19.80
2018-10-11T17:23:47.043Z,19.80
2018-10-11T17:26:15.223Z,19.80
2018-10-11T17:28:43.477Z,19.80
2018-10-11T17:31:11.744Z,19.80
2018-10-11T17:33:40.157Z,19.80
2018-10-11T17:36:08.492Z,19.70
2018-10-11T17:38:36.817Z,19.80
2018-10-11T17:41:05.405Z,19.70
2018-10-11T17:43:33.862Z,19.70
2018-10-11T17:46:02.234Z,19.70
2018-10-11T17:48:30.579Z,19.70
2018-10-11T17:50:59.637Z,19.70
2018-10-11T17:53:28.040Z,19.70
2018-10-11T17:55:56.414Z,19.70
2018-10-11T17:58:24.815Z,19.70
2018-10-11T18:00:53.197Z,19.70
2018-10-11T18:03:21.709Z,19.70
2018-10-11T18:05:50.060Z,19.60
2018-10-11T18:08:18.434Z,19.60
2018-10-11T18:10:54.909Z,19.50
2018-10-11T18:13:23.291Z,19.50
2018-10-11T18:15:52.184Z,19.50
2018-10-11T18:18:21.466Z,19.50
2018-10-11T18:20:50.189Z,19.50
2018-10-11T18:23:21.029Z,19.50
2018-10-11T18:25:49.437Z,19.40
2018-10-11T18:28:18.498Z,19.40
2018-10-11T18:30:46.987Z,19.40
2018-10-11T18:33:15.878Z,19.40
2018-10-11T18:35:44.983Z,19.40
2018-10-11T18:38:14.303Z,19.40
2018-10-11T18:40:42.698Z,19.40
2018-10-11T18:43:11.193Z,19.40
2018-10-11T18:45:39.920Z,19.30
2018-10-11T18:48:08.358Z,19.30
2018-10-11T18:50:37.601Z,19.20
2018-10-11T18:53:06.114Z,19.20
2018-10-11T18:55:35.364Z,19.20
2018-10-11T18:58:05.629Z,19.20
2018-10-11T19:00:34.918Z,19.20
2018-10-11T19:03:04.193Z,19.10
2018-10-11T19:05:33.673Z,19.10
2018-10-11T19:08:05.474Z,19.10
2018-10-11T19:10:34.212Z,19.00
2018-10-11T19:13:02.574Z,19.00
2018-10-11T19:15:30.856Z,18.90
2018-10-11T19:17:59.237Z,18.90
2018-10-11T19:20:27.723Z,18.90
2018-10-11T19:22:56.119Z,18.80
2018-10-11T19:25:24.440Z,18.80
2018-10-11T19:27:53.302Z,18.70
2018-10-11T19:30:21.635Z,18.70
2018-10-11T19:32:50.007Z,18.60
2018-10-11T19:35:18.240Z,18.60
2018-10-11T19:37:46.514Z,18.60
2018-10-11T19:40:14.792Z,18.50
2018-10-11T19:42:43.074Z,18.50
2018-10-11T19:45:11.339Z,18.40
2018-10-11T19:47:39.611Z,18.40
2018-10-11T19:50:07.885Z,18.30
2018-10-11T19:52:36.143Z,18.30
2018-10-11T19:55:04.423Z,18.30
2018-10-11T19:57:32.739Z,18.30
2018-10-11T20:00:01.035Z,18.20
2018-10-11T20:02:29.398Z,18.20
2018-10-11T20:04:57.646Z,18.20
2018-10-11T20:07:32.540Z,18.20
2018-10-11T20:10:00.821Z,18.30
2018-10-11T20:12:29.095Z,18.30
2018-10-11T20:14:57.423Z,18.30
2018-10-11T20:17:25.858Z,18.30
2018-10-11T20:19:54.131Z,18.30
2018-10-11T20:22:22.384Z,18.30
2018-10-11T20:24:50.615Z,18.20
2018-10-11T20:27:18.889Z,18.20
2018-10-11T20:29:47.185Z,18.10
2018-10-11T20:32:15.424Z,18.10
2018-10-11T20:34:43.707Z,18.00
2018-10-11T20:37:12.032Z,17.90
2018-10-11T20:39:40.309Z,17.90
2018-10-11T20:42:08.657Z,17.80
2018-10-11T20:44:37.017Z,17.80
2018-10-11T20:47:05.294Z,17.70
2018-10-11T20:49:33.552Z,17.70
2018-10-11T20:52:01.818Z,17.70
2018-10-11T20:54:30.111Z,17.60
2018-10-11T20:56:58.391Z,17.50
2018-10-11T20:59:26.843Z,17.40
2018-10-11T21:01:55.155Z,17.40
2018-10-11T21:04:23.449Z,17.40
2018-10-11T21:06:51.870Z,17.30
2018-10-11T21:09:20.132Z,17.20
2018-10-11T21:11:48.448Z,17.20
2018-10-11T21:14:16.717Z,17.20
2018-10-11T21:16:44.994Z,17.20
2018-10-11T21:19:13.381Z,17.10
2018-10-11T21:21:41.607Z,17.10
2018-10-11T21:24:09.924Z,17.10
2018-10-11T21:26:38.183Z,17.00
2018-10-11T21:29:06.472Z,17.00
2018-10-11T21:31:34.733Z,17.00
2018-10-11T21:34:03.066Z,17.00
2018-10-11T21:36:31.332Z,16.90
2018-10-11T21:38:59.601Z,16.90
2018-10-11T21:41:27.939Z,16.90
2018-10-11T21:43:56.222Z,16.80
2018-10-11T21:46:24.550Z,16.80
2018-10-11T21:48:52.787Z,16.70
2018-10-11T21:51:21.027Z,16.70
2018-10-11T21:53:49.348Z,16.60
2018-10-11T21:56:17.920Z,16.60
2018-10-11T21:58:46.161Z,16.60
2018-10-11T22:01:21.839Z,16.50
2018-10-11T22:03:50.442Z,16.50
2018-10-11T22:06:18.715Z,16.50
2018-10-11T22:08:46.996Z,16.40
2018-10-11T22:11:15.284Z,16.40
2018-10-11T22:13:43.597Z,16.50
2018-10-11T22:16:11.959Z,16.50
2018-10-11T22:18:40.947Z,16.50
2018-10-11T22:21:10.389Z,16.50
2018-10-11T22:23:39.480Z,16.40
2018-10-11T22:26:07.823Z,16.40
2018-10-11T22:28:36.078Z,16.30
2018-10-11T22:31:04.347Z,16.30
2018-10-11T22:33:32.626Z,16.30
2018-10-11T22:36:00.906Z,16.30
2018-10-11T22:38:29.340Z,16.20
2018-10-11T22:40:57.600Z,16.20
2018-10-11T22:43:25.854Z,16.20
2018-10-11T22:45:54.151Z,16.10
2018-10-11T22:48:22.447Z,16.10
2018-10-11T22:50:50.711Z,16.10
2018-10-11T22:53:18.986Z,16.10
2018-10-11T22:55:47.298Z,16.10
2018-10-11T22:58:15.560Z,16.10
2018-10-11T23:00:43.787Z,16.10
2018-10-11T23:03:12.080Z,16.10
2018-10-11T23:05:40.305Z,16.00
2018-10-11T23:08:08.613Z,16.00
2018-10-11T23:10:36.863Z,16.00
2018-10-11T23:13:05.152Z,15.90
2018-10-11T23:15:33.541Z,16.00
2018-10-11T23:18:01.850Z,16.00
2018-10-11T23:20:30.178Z,15.90
2018-10-11T23:22:58.421Z,16.00
2018-10-11T23:25:26.695Z,16.00
2018-10-11T23:27:55.010Z,16.00
2018-10-11T23:30:23.351Z,16.00
2018-10-11T23:32:51.584Z,16.00
2018-10-11T23:35:19.835Z,16.00
2018-10-11T23:37:48.139Z,15.90
2018-10-11T23:40:16.387Z,15.90
2018-10-11T23:42:44.624Z,15.90
2018-10-11T23:45:13.115Z,15.90
2018-10-11T23:47:42.318Z,15.90
2018-10-11T23:50:10.631Z,15.90
2018-10-11T23:52:38.915Z,16.00
2018-10-11T23:55:07.579Z,15.90
2018-10-11T23:57:35.856Z,15.90
